Aviation Digital Data Service (ADDS)

Output produced by METARs form (0018 UTC 20 April 2019)
found at http://www.aviationweather.gov/metar/data/
 
METAR text: WMKE 200000Z VRB01KT 9999 FEW006 FEW015CB BKN260 26/25 Q1008
Conditions at: WMKE (KERTEH , MY) observed 0000 UTC 20 April 2019
Temperature: 26.0°C (79°F)
Dewpoint: 25.0°C (77°F) [RH = 94%]
Pressure (altimeter): 29.76 inches Hg (1008.0 mb)
Winds: variable direction winds at 1 MPH (1 knots; 0.5 m/s)
Visibility: 6 or more miles (10+ km)
Ceiling: 26000 feet AGL
Clouds: few clouds at 600 feet AGL
few clouds at 1500 feet AGL
broken clouds at 26000 feet AGL
Weather: no significant weather observed at this time

METAR text: WMKE 192300Z 00000KT 9999 FEW002 SCT140 BKN260 24/23 Q1007
Conditions at: WMKE (KERTEH , MY) observed 2300 UTC 19 April 2019
Temperature: 24.0°C (75°F)
Dewpoint: 23.0°C (73°F) [RH = 94%]
Pressure (altimeter): 29.73 inches Hg (1007.0 mb)
Winds: calm
Visibility: 6 or more miles (10+ km)
Ceiling: 26000 feet AGL
Clouds: few clouds at 200 feet AGL
scattered clouds at 14000 feet AGL
broken clouds at 26000 feet AGL
Weather: no significant weather observed at this time

METAR text: WMKE 192200Z AUTO 00000KT //// // 24/23 Q1007
Conditions at: WMKE (KERTEH , MY) observed 2200 UTC 19 April 2019
Temperature: 24.0°C (75°F)
Dewpoint: 23.0°C (73°F) [RH = 94%]
Pressure (altimeter): 29.73 inches Hg (1007.0 mb)
Winds: calm
Visibility: missing
Ceiling: unknown
Clouds: missing
Weather: no significant weather observed at this time

METAR text: WMKE 192100Z AUTO 00000KT //// // 24/24 Q1007
Conditions at: WMKE (KERTEH , MY) observed 2100 UTC 19 April 2019
Temperature: 24.0°C (75°F)
Dewpoint: 24.0°C (75°F) [RH = 100%]
Pressure (altimeter): 29.73 inches Hg (1007.0 mb)
Winds: calm
Visibility: missing
Ceiling: unknown
Clouds: missing
Weather: no significant weather observed at this time

METAR text: WMKE 192000Z AUTO 00000KT //// // 24/24 Q1007
Conditions at: WMKE (KERTEH , MY) observed 2000 UTC 19 April 2019
Temperature: 24.0°C (75°F)
Dewpoint: 24.0°C (75°F) [RH = 100%]
Pressure (altimeter): 29.73 inches Hg (1007.0 mb)
Winds: calm
Visibility: missing
Ceiling: unknown
Clouds: missing
Weather: no significant weather observed at this time

METAR text: WMKE 191900Z AUTO 00000KT //// // 24/24 Q1007
Conditions at: WMKE (KERTEH , MY) observed 1900 UTC 19 April 2019
Temperature: 24.0°C (75°F)
Dewpoint: 24.0°C (75°F) [RH = 100%]
Pressure (altimeter): 29.73 inches Hg (1007.0 mb)
Winds: calm
Visibility: missing
Ceiling: unknown
Clouds: missing
Weather: no significant weather observed at this time

METAR text: WMKE 191800Z AUTO 00000KT //// // 25/24 Q1008
Conditions at: WMKE (KERTEH , MY) observed 1800 UTC 19 April 2019
Temperature: 25.0°C (77°F)
Dewpoint: 24.0°C (75°F) [RH = 94%]
Pressure (altimeter): 29.76 inches Hg (1008.0 mb)
Winds: calm
Visibility: missing
Ceiling: unknown
Clouds: missing
Weather: no significant weather observed at this time

METAR text: WMKE 191700Z AUTO 00000KT //// // 25/24 Q1008
Conditions at: WMKE (KERTEH , MY) observed 1700 UTC 19 April 2019
Temperature: 25.0°C (77°F)
Dewpoint: 24.0°C (75°F) [RH = 94%]
Pressure (altimeter): 29.76 inches Hg (1008.0 mb)
Winds: calm
Visibility: missing
Ceiling: unknown
Clouds: missing
Weather: no significant weather observed at this time

METAR text: WMKE 191600Z AUTO 00000KT //// // 25/25 Q1009
Conditions at: WMKE (KERTEH , MY) observed 1600 UTC 19 April 2019
Temperature: 25.0°C (77°F)
Dewpoint: 25.0°C (77°F) [RH = 100%]
Pressure (altimeter): 29.79 inches Hg (1009.0 mb)
Winds: calm
Visibility: missing
Ceiling: unknown
Clouds: missing
Weather: no significant weather observed at this time

METAR text: WMKE 191500Z AUTO 00000KT //// // 26/25 Q1008
Conditions at: WMKE (KERTEH , MY) observed 1500 UTC 19 April 2019
Temperature: 26.0°C (79°F)
Dewpoint: 25.0°C (77°F) [RH = 94%]
Pressure (altimeter): 29.76 inches Hg (1008.0 mb)
Winds: calm
Visibility: missing
Ceiling: unknown
Clouds: missing
Weather: no significant weather observed at this time

METAR text: WMKE 191400Z AUTO 00000KT //// // 27/25 Q1008
Conditions at: WMKE (KERTEH , MY) observed 1400 UTC 19 April 2019
Temperature: 27.0°C (81°F)
Dewpoint: 25.0°C (77°F) [RH = 89%]
Pressure (altimeter): 29.76 inches Hg (1008.0 mb)
Winds: calm
Visibility: missing
Ceiling: unknown
Clouds: missing
Weather: no significant weather observed at this time

METAR text: WMKE 191300Z AUTO 00000KT //// // 27/25 Q1006
Conditions at: WMKE (KERTEH , MY) observed 1300 UTC 19 April 2019
Temperature: 27.0°C (81°F)
Dewpoint: 25.0°C (77°F) [RH = 89%]
Pressure (altimeter): 29.70 inches Hg (1006.0 mb)
Winds: calm
Visibility: missing
Ceiling: unknown
Clouds: missing
Weather: no significant weather observed at this time

METAR text: WMKE 191200Z AUTO VRB02KT //// // 29/26 Q1006
Conditions at: WMKE (KERTEH , MY) observed 1200 UTC 19 April 2019
Temperature: 29.0°C (84°F)
Dewpoint: 26.0°C (79°F) [RH = 84%]
Pressure (altimeter): 29.70 inches Hg (1006.0 mb)
Winds: variable direction winds at 2 MPH (2 knots; 1.0 m/s)
Visibility: missing
Ceiling: unknown
Clouds: missing
Weather: no significant weather observed at this time

METAR text: WMKE 191100Z 03004KT 340V100 9999 FEW014 SCT160 BKN260 30/25 Q1005
Conditions at: WMKE (KERTEH , MY) observed 1100 UTC 19 April 2019
Temperature: 30.0°C (86°F)
Dewpoint: 25.0°C (77°F) [RH = 75%]
Pressure (altimeter): 29.68 inches Hg (1005.0 mb)
Winds: from the NNE (30 degrees) at 5 MPH (4 knots; 2.1 m/s)
Visibility: 6 or more miles (10+ km)
Ceiling: 26000 feet AGL
Clouds: few clouds at 1400 feet AGL
scattered clouds at 16000 feet AGL
broken clouds at 26000 feet AGL
Weather: no significant weather observed at this time

METAR text: WMKE 191000Z 06007KT 010V120 9999 FEW014 FEW015CB BKN270 31/25 Q1005
Conditions at: WMKE (KERTEH , MY) observed 1000 UTC 19 April 2019
Temperature: 31.0°C (88°F)
Dewpoint: 25.0°C (77°F) [RH = 71%]
Pressure (altimeter): 29.68 inches Hg (1005.0 mb)
Winds: from the ENE (60 degrees) at 8 MPH (7 knots; 3.6 m/s)
Visibility: 6 or more miles (10+ km)
Ceiling: 27000 feet AGL
Clouds: few clouds at 1400 feet AGL
few clouds at 1500 feet AGL
broken clouds at 27000 feet AGL
Weather: no significant weather observed at this time

METAR text: WMKE 190900Z 06007KT 010V120 9999 FEW014 FEW015CB BKN270 31/26 Q1005
Conditions at: WMKE (KERTEH , MY) observed 0900 UTC 19 April 2019
Temperature: 31.0°C (88°F)
Dewpoint: 26.0°C (79°F) [RH = 75%]
Pressure (altimeter): 29.68 inches Hg (1005.0 mb)
Winds: from the ENE (60 degrees) at 8 MPH (7 knots; 3.6 m/s)
Visibility: 6 or more miles (10+ km)
Ceiling: 27000 feet AGL
Clouds: few clouds at 1400 feet AGL
few clouds at 1500 feet AGL
broken clouds at 27000 feet AGL
Weather: no significant weather observed at this time

METAR text: WMKE 190800Z 07007KT 010V150 9999 FEW014 BKN270 32/25 Q1006
Conditions at: WMKE (KERTEH , MY) observed 0800 UTC 19 April 2019
Temperature: 32.0°C (90°F)
Dewpoint: 25.0°C (77°F) [RH = 67%]
Pressure (altimeter): 29.70 inches Hg (1006.0 mb)
Winds: from the ENE (70 degrees) at 8 MPH (7 knots; 3.6 m/s)
Visibility: 6 or more miles (10+ km)
Ceiling: 27000 feet AGL
Clouds: few clouds at 1400 feet AGL
broken clouds at 27000 feet AGL
Weather: no significant weather observed at this time

METAR text: WMKE 190700Z 05008KT 340V100 9999 FEW014 BKN280 32/26 Q1006
Conditions at: WMKE (KERTEH , MY) observed 0700 UTC 19 April 2019
Temperature: 32.0°C (90°F)
Dewpoint: 26.0°C (79°F) [RH = 71%]
Pressure (altimeter): 29.70 inches Hg (1006.0 mb)
Winds: from the NE (50 degrees) at 9 MPH (8 knots; 4.1 m/s)
Visibility: 6 or more miles (10+ km)
Ceiling: 28000 feet AGL
Clouds: few clouds at 1400 feet AGL
broken clouds at 28000 feet AGL
Weather: no significant weather observed at this time

METAR text: WMKE 190600Z 06007KT 330V120 9999 FEW014 BKN280 33/26 Q1007
Conditions at: WMKE (KERTEH , MY) observed 0600 UTC 19 April 2019
Temperature: 33.0°C (91°F)
Dewpoint: 26.0°C (79°F) [RH = 67%]
Pressure (altimeter): 29.73 inches Hg (1007.0 mb)
Winds: from the ENE (60 degrees) at 8 MPH (7 knots; 3.6 m/s)
Visibility: 6 or more miles (10+ km)
Ceiling: 28000 feet AGL
Clouds: few clouds at 1400 feet AGL
broken clouds at 28000 feet AGL
Weather: no significant weather observed at this time

METAR text: WMKE 190500Z 08006KT 010V160 9999 FEW014 BKN280 33/26 Q1008
Conditions at: WMKE (KERTEH , MY) observed 0500 UTC 19 April 2019
Temperature: 33.0°C (91°F)
Dewpoint: 26.0°C (79°F) [RH = 67%]
Pressure (altimeter): 29.76 inches Hg (1008.0 mb)
Winds: from the E (80 degrees) at 7 MPH (6 knots; 3.1 m/s)
Visibility: 6 or more miles (10+ km)
Ceiling: 28000 feet AGL
Clouds: few clouds at 1400 feet AGL
broken clouds at 28000 feet AGL
Weather: no significant weather observed at this time

METAR text: WMKE 190400Z 10003KT 030V190 9999 FEW015 BKN260 32/27 Q1009
Conditions at: WMKE (KERTEH , MY) observed 0400 UTC 19 April 2019
Temperature: 32.0°C (90°F)
Dewpoint: 27.0°C (81°F) [RH = 75%]
Pressure (altimeter): 29.79 inches Hg (1009.0 mb)
Winds: from the E (100 degrees) at 3 MPH (3 knots; 1.5 m/s)
Visibility: 6 or more miles (10+ km)
Ceiling: 26000 feet AGL
Clouds: few clouds at 1500 feet AGL
broken clouds at 26000 feet AGL
Weather: no significant weather observed at this time

METAR text: WMKE 190300Z VRB02KT 9999 FEW015 BKN270 32/26 Q1010
Conditions at: WMKE (KERTEH , MY) observed 0300 UTC 19 April 2019
Temperature: 32.0°C (90°F)
Dewpoint: 26.0°C (79°F) [RH = 71%]
Pressure (altimeter): 29.82 inches Hg (1010.0 mb)
Winds: variable direction winds at 2 MPH (2 knots; 1.0 m/s)
Visibility: 6 or more miles (10+ km)
Ceiling: 27000 feet AGL
Clouds: few clouds at 1500 feet AGL
broken clouds at 27000 feet AGL
Weather: no significant weather observed at this time

METAR text: WMKE 190200Z VRB03KT 9999 FEW015 BKN260 31/26 Q1010
Conditions at: WMKE (KERTEH , MY) observed 0200 UTC 19 April 2019
Temperature: 31.0°C (88°F)
Dewpoint: 26.0°C (79°F) [RH = 75%]
Pressure (altimeter): 29.82 inches Hg (1010.0 mb)
Winds: variable direction winds at 3 MPH (3 knots; 1.5 m/s)
Visibility: 6 or more miles (10+ km)
Ceiling: 26000 feet AGL
Clouds: few clouds at 1500 feet AGL
broken clouds at 26000 feet AGL
Weather: no significant weather observed at this time

METAR text: WMKE 190100Z VRB03KT 9999 FEW015 BKN260 29/26 Q1010
Conditions at: WMKE (KERTEH , MY) observed 0100 UTC 19 April 2019
Temperature: 29.0°C (84°F)
Dewpoint: 26.0°C (79°F) [RH = 84%]
Pressure (altimeter): 29.82 inches Hg (1010.0 mb)
Winds: variable direction winds at 3 MPH (3 knots; 1.5 m/s)
Visibility: 6 or more miles (10+ km)
Ceiling: 26000 feet AGL
Clouds: few clouds at 1500 feet AGL
broken clouds at 26000 feet AGL
Weather: no significant weather observed at this time

METAR text: WMKE 190000Z 00000KT 9999 FEW015 BKN260 25/25 Q1009
Conditions at: WMKE (KERTEH , MY) observed 0000 UTC 19 April 2019
Temperature: 25.0°C (77°F)
Dewpoint: 25.0°C (77°F) [RH = 100%]
Pressure (altimeter): 29.79 inches Hg (1009.0 mb)
Winds: calm
Visibility: 6 or more miles (10+ km)
Ceiling: 26000 feet AGL
Clouds: few clouds at 1500 feet AGL
broken clouds at 26000 feet AGL
Weather: no significant weather observed at this time

METAR text: WMKE 182300Z 00000KT 9999 FEW015 BKN260 23/23 Q1008
Conditions at: WMKE (KERTEH , MY) observed 2300 UTC 18 April 2019
Temperature: 23.0°C (73°F)
Dewpoint: 23.0°C (73°F) [RH = 100%]
Pressure (altimeter): 29.76 inches Hg (1008.0 mb)
Winds: calm
Visibility: 6 or more miles (10+ km)
Ceiling: 26000 feet AGL
Clouds: few clouds at 1500 feet AGL
broken clouds at 26000 feet AGL
Weather: no significant weather observed at this time

METAR text: WMKE 182200Z AUTO 00000KT //// // 23/23 Q1008
Conditions at: WMKE (KERTEH , MY) observed 2200 UTC 18 April 2019
Temperature: 23.0°C (73°F)
Dewpoint: 23.0°C (73°F) [RH = 100%]
Pressure (altimeter): 29.76 inches Hg (1008.0 mb)
Winds: calm
Visibility: missing
Ceiling: unknown
Clouds: missing
Weather: no significant weather observed at this time

METAR text: WMKE 182100Z AUTO 00000KT //// // 24/23 Q1008
Conditions at: WMKE (KERTEH , MY) observed 2100 UTC 18 April 2019
Temperature: 24.0°C (75°F)
Dewpoint: 23.0°C (73°F) [RH = 94%]
Pressure (altimeter): 29.76 inches Hg (1008.0 mb)
Winds: calm
Visibility: missing
Ceiling: unknown
Clouds: missing
Weather: no significant weather observed at this time

METAR text: WMKE 182000Z AUTO 00000KT //// // 24/24 Q1008
Conditions at: WMKE (KERTEH , MY) observed 2000 UTC 18 April 2019
Temperature: 24.0°C (75°F)
Dewpoint: 24.0°C (75°F) [RH = 100%]
Pressure (altimeter): 29.76 inches Hg (1008.0 mb)
Winds: calm
Visibility: missing
Ceiling: unknown
Clouds: missing
Weather: no significant weather observed at this time

METAR text: WMKE 181900Z AUTO 00000KT //// // 24/24 Q1008
Conditions at: WMKE (KERTEH , MY) observed 1900 UTC 18 April 2019
Temperature: 24.0°C (75°F)
Dewpoint: 24.0°C (75°F) [RH = 100%]
Pressure (altimeter): 29.76 inches Hg (1008.0 mb)
Winds: calm
Visibility: missing
Ceiling: unknown
Clouds: missing
Weather: no significant weather observed at this time

METAR text: WMKE 181800Z AUTO 00000KT //// // 24/24 Q1009
Conditions at: WMKE (KERTEH , MY) observed 1800 UTC 18 April 2019
Temperature: 24.0°C (75°F)
Dewpoint: 24.0°C (75°F) [RH = 100%]
Pressure (altimeter): 29.79 inches Hg (1009.0 mb)
Winds: calm
Visibility: missing
Ceiling: unknown
Clouds: missing
Weather: no significant weather observed at this time

METAR text: WMKE 181700Z AUTO 00000KT //// // 25/24 Q1010
Conditions at: WMKE (KERTEH , MY) observed 1700 UTC 18 April 2019
Temperature: 25.0°C (77°F)
Dewpoint: 24.0°C (75°F) [RH = 94%]
Pressure (altimeter): 29.82 inches Hg (1010.0 mb)
Winds: calm
Visibility: missing
Ceiling: unknown
Clouds: missing
Weather: no significant weather observed at this time

METAR text: WMKE 181600Z AUTO 00000KT //// // 25/24 Q1010
Conditions at: WMKE (KERTEH , MY) observed 1600 UTC 18 April 2019
Temperature: 25.0°C (77°F)
Dewpoint: 24.0°C (75°F) [RH = 94%]
Pressure (altimeter): 29.82 inches Hg (1010.0 mb)
Winds: calm
Visibility: missing
Ceiling: unknown
Clouds: missing
Weather: no significant weather observed at this time

METAR text: WMKE 181500Z AUTO 00000KT //// // 25/24 Q1010
Conditions at: WMKE (KERTEH , MY) observed 1500 UTC 18 April 2019
Temperature: 25.0°C (77°F)
Dewpoint: 24.0°C (75°F) [RH = 94%]
Pressure (altimeter): 29.82 inches Hg (1010.0 mb)
Winds: calm
Visibility: missing
Ceiling: unknown
Clouds: missing
Weather: no significant weather observed at this time

METAR text: WMKE 181400Z AUTO 00000KT //// // 26/25 Q1009
Conditions at: WMKE (KERTEH , MY) observed 1400 UTC 18 April 2019
Temperature: 26.0°C (79°F)
Dewpoint: 25.0°C (77°F) [RH = 94%]
Pressure (altimeter): 29.79 inches Hg (1009.0 mb)
Winds: calm
Visibility: missing
Ceiling: unknown
Clouds: missing
Weather: no significant weather observed at this time

METAR text: WMKE 181300Z AUTO 00000KT //// // 26/25 Q1008
Conditions at: WMKE (KERTEH , MY) observed 1300 UTC 18 April 2019
Temperature: 26.0°C (79°F)
Dewpoint: 25.0°C (77°F) [RH = 94%]
Pressure (altimeter): 29.76 inches Hg (1008.0 mb)
Winds: calm
Visibility: missing
Ceiling: unknown
Clouds: missing
Weather: no significant weather observed at this time

Forecast for: WMKE (KERTEH , MY)
Text: TAF WMKE 192300Z 2000/2100 VRB03KT 9999 FEW014 BKN270
Forecast period: 0000 to 0400 UTC 20 April 2019
Forecast type: FROM: standard forecast or significant change
Winds: variable direction winds at 3 MPH (3 knots; 1.5 m/s)
Visibility: 6 or more miles 10+ km)
Ceiling: 27000 feet AGL
Clouds: few clouds at 1400 feet AGL
broken clouds at 27000 feet AGL
Weather: no significant weather forecast for this period
Text: BECMG 2004/2005 06007KT
Forecast period: 0400 to 1200 UTC 20 April 2019
Forecast type: BECOMING: Conditions expected to become as follows by 0500 UTC 20 April 2019
Winds: from the ENE (60 degrees) at 8 MPH (7 knots; 3.6 m/s)
Visibility: 6 or more miles 10+ km)
Ceiling: 27000 feet AGL
Clouds: few clouds at 1400 feet AGL
broken clouds at 27000 feet AGL
Weather: no significant weather forecast for this period
Text: BECMG 2012/2013 VRB02KT
Forecast period: 1200 UTC 20 April 2019 to 0000 UTC 21 April 2019
Forecast type: BECOMING: Conditions expected to become as follows by 1300 UTC 20 April 2019
Winds: variable direction winds at 2 MPH (2 knots; 1.0 m/s)
Visibility: 6 or more miles 10+ km)
Ceiling: 27000 feet AGL
Clouds: few clouds at 1400 feet AGL
broken clouds at 27000 feet AGL
Weather: no significant weather forecast for this period